Brighton, CO (80601)

12:07 AM MDT on July 26, 2016 (GMT -0600)
The Preserve - Brighton | | Change Station

Elev 5115 ft 39.99 °N, 104.78 °W | Updated 6 seconds ago

Mostly Cloudy
Mostly Cloudy
79.0 °F
Feels Like 79 °F
N
9.6
Wind Variable Wind from South
Gusts 15.0 mph

Today
High -- | Low -- °F
--% Chance of Precip.
Yesterday
High -- | Low -- °F
Precip. -- in
Pressure 29.88 in
Visibility 10.0 miles
Clouds Scattered Clouds 16000 ft
Mostly Cloudy 18000 ft
Heat Index 79 °F
Dew Point 45 °F
Humidity 30%
Rainfall 0.00 in
Snow Depth Not available.
5:52 AM 8:18 PM
Waning Gibbous, 58% visible
METAR KDEN 260553Z 22016G24KT 10SM SCT160 BKN180 24/08 A3016 RMK AO2 PK WND 20030/0510 SLP116 T02440083 10311 20244 50007 $
Pressure 29.88 in
Visibility 10.0 miles
Clouds Scattered Clouds 16000 ft
Mostly Cloudy 18000 ft
Heat Index 79 °F
Dew Point 45 °F
Humidity 30%
Rainfall 0.00 in
Snow Depth Not available.
5:52 AM 8:18 PM
Waning Gibbous, 58% visible
METAR KDEN 260553Z 22016G24KT 10SM SCT160 BKN180 24/08 A3016 RMK AO2 PK WND 20030/0510 SLP116 T02440083 10311 20244 50007 $

10-Day Weather Forecast

Almanac

Astronomy

Jul. 26, 2016 Rise Set
Actual Time
Civil Twilight
Nautical Twilight
Astronomical Twilight
Moon
Length of Visible Light
Length of Day
Tomorrow will be .
, % of the Moon is Illuminated

Today's Extremes

State Highs State Lows

Community

WunderPhotos

Upload Photos

1,927,547 photos uploaded!

WunderBlog® & News

Nearby

Air Quality

  Air Quality AQ Index Pollutant
Not available.

Snow Depth

Station Depth Elevation

Earthquake Activity

City Distance Mag. Time & Date
Minimum magnitude displayed is 2.5.

Coastal Water Temperatures

Place Temperature

Stations

Nearby Weather Stations

Station Location Temp. Windchill Dew Point Humidity Wind Precip. Elev Updated Type
                   

Watches & Warnings

There are currently no watches in effect.